sensor_id;sensor_type;location;lat;lon;timestamp;P1;durP1;ratioP1;P2;durP2;ratioP2
8086;SDS011;4086;54.412;9.980;2022-10-28T00:00:45;4.20;;;3.80;;
8086;SDS011;4086;54.412;9.980;2022-10-28T00:03:11;3.87;;;3.50;;
8086;SDS011;4086;54.412;9.980;2022-10-28T00:05:38;4.00;;;3.60;;
8086;SDS011;4086;54.412;9.980;2022-10-28T00:08:04;4.20;;;3.33;;
8086;SDS011;4086;54.412;9.980;2022-10-28T00:10:31;3.30;;;2.70;;
8086;SDS011;4086;54.412;9.980;2022-10-28T00:12:57;4.50;;;3.10;;
8086;SDS011;4086;54.412;9.980;2022-10-28T00:15:24;3.63;;;3.33;;
8086;SDS011;4086;54.412;9.980;2022-10-28T00:17:52;3.70;;;3.40;;
8086;SDS011;4086;54.412;9.980;2022-10-28T00:20:19;4.53;;;3.60;;
8086;SDS011;4086;54.412;9.980;2022-10-28T00:22:45;5.13;;;3.53;;
8086;SDS011;4086;54.412;9.980;2022-10-28T00:25:12;3.50;;;3.20;;
8086;SDS011;4086;54.412;9.980;2022-10-28T00:27:38;3.97;;;3.50;;
8086;SDS011;4086;54.412;9.980;2022-10-28T00:30:05;4.30;;;3.27;;
8086;SDS011;4086;54.412;9.980;2022-10-28T00:32:32;3.93;;;3.50;;
8086;SDS011;4086;54.412;9.980;2022-10-28T00:35:00;4.33;;;3.90;;
8086;SDS011;4086;54.412;9.980;2022-10-28T00:37:26;4.10;;;3.70;;
8086;SDS011;4086;54.412;9.980;2022-10-28T00:39:53;4.27;;;3.83;;
8086;SDS011;4086;54.412;9.980;2022-10-28T00:42:20;3.50;;;3.17;;
8086;SDS011;4086;54.412;9.980;2022-10-28T00:44:51;4.67;;;3.90;;
8086;SDS011;4086;54.412;9.980;2022-10-28T00:47:23;7.03;;;3.70;;
8086;SDS011;4086;54.412;9.980;2022-10-28T00:49:56;4.30;;;3.87;;
8086;SDS011;4086;54.412;9.980;2022-10-28T00:52:28;5.53;;;3.90;;
8086;SDS011;4086;54.412;9.980;2022-10-28T00:54:55;4.57;;;3.90;;
8086;SDS011;4086;54.412;9.980;2022-10-28T00:57:24;4.30;;;3.90;;
8086;SDS011;4086;54.412;9.980;2022-10-28T00:59:54;6.57;;;4.17;;
8086;SDS011;4086;54.412;9.980;2022-10-28T01:02:20;7.20;;;4.17;;
8086;SDS011;4086;54.412;9.980;2022-10-28T01:04:47;4.13;;;3.83;;
8086;SDS011;4086;54.412;9.980;2022-10-28T01:07:14;6.33;;;4.20;;
8086;SDS011;4086;54.412;9.980;2022-10-28T01:09:42;7.20;;;3.90;;
8086;SDS011;4086;54.412;9.980;2022-10-28T01:12:11;5.83;;;4.00;;
8086;SDS011;4086;54.412;9.980;2022-10-28T01:14:47;6.00;;;3.80;;
8086;SDS011;4086;54.412;9.980;2022-10-28T01:17:23;4.97;;;3.93;;
8086;SDS011;4086;54.412;9.980;2022-10-28T01:20:02;4.10;;;3.67;;
8086;SDS011;4086;54.412;9.980;2022-10-28T01:22:50;4.70;;;4.23;;
8086;SDS011;4086;54.412;9.980;2022-10-28T01:25:43;7.90;;;4.37;;
8086;SDS011;4086;54.412;9.980;2022-10-28T01:28:33;5.63;;;4.10;;
8086;SDS011;4086;54.412;9.980;2022-10-28T01:33:57;6.40;;;4.43;;
8086;SDS011;4086;54.412;9.980;2022-10-28T01:36:32;4.63;;;3.73;;
8086;SDS011;4086;54.412;9.980;2022-10-28T01:39:05;4.70;;;4.00;;
8086;SDS011;4086;54.412;9.980;2022-10-28T01:41:37;4.47;;;4.10;;
8086;SDS011;4086;54.412;9.980;2022-10-28T01:44:12;4.33;;;3.93;;
8086;SDS011;4086;54.412;9.980;2022-10-28T01:46:47;5.10;;;4.60;;
8086;SDS011;4086;54.412;9.980;2022-10-28T01:49:19;5.17;;;4.67;;
8086;SDS011;4086;54.412;9.980;2022-10-28T01:51:49;6.33;;;4.67;;
8086;SDS011;4086;54.412;9.980;2022-10-28T01:54:18;6.27;;;4.77;;
8086;SDS011;4086;54.412;9.980;2022-10-28T01:56:46;6.57;;;4.50;;
8086;SDS011;4086;54.412;9.980;2022-10-28T01:59:15;6.57;;;4.63;;
8086;SDS011;4086;54.412;9.980;2022-10-28T02:01:42;4.77;;;4.30;;
8086;SDS011;4086;54.412;9.980;2022-10-28T02:04:10;4.73;;;4.17;;
8086;SDS011;4086;54.412;9.980;2022-10-28T02:06:36;4.90;;;4.40;;
8086;SDS011;4086;54.412;9.980;2022-10-28T02:09:13;6.70;;;4.33;;
8086;SDS011;4086;54.412;9.980;2022-10-28T02:11:52;6.33;;;4.50;;
8086;SDS011;4086;54.412;9.980;2022-10-28T02:14:31;7.40;;;5.20;;
8086;SDS011;4086;54.412;9.980;2022-10-28T02:17:05;7.87;;;5.00;;
8086;SDS011;4086;54.412;9.980;2022-10-28T02:19:38;8.87;;;5.63;;
8086;SDS011;4086;54.412;9.980;2022-10-28T02:22:12;8.00;;;4.83;;
8086;SDS011;4086;54.412;9.980;2022-10-28T02:24:43;9.83;;;5.93;;
8086;SDS011;4086;54.412;9.980;2022-10-28T02:27:17;7.67;;;5.40;;
8086;SDS011;4086;54.412;9.980;2022-10-28T02:29:49;5.73;;;4.80;;
8086;SDS011;4086;54.412;9.980;2022-10-28T02:32:20;11.40;;;5.60;;
8086;SDS011;4086;54.412;9.980;2022-10-28T02:34:51;8.90;;;5.23;;
8086;SDS011;4086;54.412;9.980;2022-10-28T02:37:20;7.80;;;5.30;;
8086;SDS011;4086;54.412;9.980;2022-10-28T02:39:48;6.47;;;5.27;;
8086;SDS011;4086;54.412;9.980;2022-10-28T02:42:19;6.37;;;5.77;;
8086;SDS011;4086;54.412;9.980;2022-10-28T02:44:48;5.93;;;4.67;;
8086;SDS011;4086;54.412;9.980;2022-10-28T02:47:17;6.07;;;5.47;;
8086;SDS011;4086;54.412;9.980;2022-10-28T02:49:46;8.33;;;5.37;;
8086;SDS011;4086;54.412;9.980;2022-10-28T02:52:17;12.10;;;6.13;;
8086;SDS011;4086;54.412;9.980;2022-10-28T02:54:46;6.40;;;5.10;;
8086;SDS011;4086;54.412;9.980;2022-10-28T02:57:15;5.17;;;4.67;;
8086;SDS011;4086;54.412;9.980;2022-10-28T02:59:49;6.20;;;5.43;;
8086;SDS011;4086;54.412;9.980;2022-10-28T03:02:17;8.00;;;6.10;;
8086;SDS011;4086;54.412;9.980;2022-10-28T03:04:43;7.27;;;5.60;;
8086;SDS011;4086;54.412;9.980;2022-10-28T03:07:10;7.03;;;6.33;;
8086;SDS011;4086;54.412;9.980;2022-10-28T03:09:38;7.27;;;6.00;;
8086;SDS011;4086;54.412;9.980;2022-10-28T03:12:04;7.53;;;6.07;;
8086;SDS011;4086;54.412;9.980;2022-10-28T03:14:31;8.33;;;5.70;;
8086;SDS011;4086;54.412;9.980;2022-10-28T03:16:58;6.37;;;5.77;;
8086;SDS011;4086;54.412;9.980;2022-10-28T03:19:24;6.53;;;5.93;;
8086;SDS011;4086;54.412;9.980;2022-10-28T03:21:51;6.10;;;5.43;;
8086;SDS011;4086;54.412;9.980;2022-10-28T03:24:17;7.07;;;5.60;;
8086;SDS011;4086;54.412;9.980;2022-10-28T03:26:45;6.53;;;5.20;;
8086;SDS011;4086;54.412;9.980;2022-10-28T03:29:12;10.10;;;5.80;;
8086;SDS011;4086;54.412;9.980;2022-10-28T03:31:38;9.47;;;6.63;;
8086;SDS011;4086;54.412;9.980;2022-10-28T03:34:04;7.77;;;5.63;;
8086;SDS011;4086;54.412;9.980;2022-10-28T03:36:31;9.07;;;5.97;;
8086;SDS011;4086;54.412;9.980;2022-10-28T03:38:58;7.93;;;6.50;;
8086;SDS011;4086;54.412;9.980;2022-10-28T03:41:24;9.73;;;6.30;;
8086;SDS011;4086;54.412;9.980;2022-10-28T03:43:52;8.63;;;6.37;;
8086;SDS011;4086;54.412;9.980;2022-10-28T03:46:19;6.63;;;5.93;;
8086;SDS011;4086;54.412;9.980;2022-10-28T03:48:45;8.27;;;6.63;;
8086;SDS011;4086;54.412;9.980;2022-10-28T03:51:12;10.97;;;6.30;;
8086;SDS011;4086;54.412;9.980;2022-10-28T03:53:38;8.67;;;7.03;;
8086;SDS011;4086;54.412;9.980;2022-10-28T03:56:05;8.70;;;6.43;;
8086;SDS011;4086;54.412;9.980;2022-10-28T03:58:32;7.67;;;5.70;;
8086;SDS011;4086;54.412;9.980;2022-10-28T04:01:00;8.23;;;6.80;;
8086;SDS011;4086;54.412;9.980;2022-10-28T04:03:26;8.13;;;7.13;;
8086;SDS011;4086;54.412;9.980;2022-10-28T04:05:53;8.27;;;6.07;;
8086;SDS011;4086;54.412;9.980;2022-10-28T04:08:19;6.73;;;5.80;;
8086;SDS011;4086;54.412;9.980;2022-10-28T04:10:46;9.80;;;6.53;;
8086;SDS011;4086;54.412;9.980;2022-10-28T04:13:14;7.43;;;5.80;;
8086;SDS011;4086;54.412;9.980;2022-10-28T04:15:41;8.13;;;6.03;;
8086;SDS011;4086;54.412;9.980;2022-10-28T04:18:09;6.60;;;6.00;;
8086;SDS011;4086;54.412;9.980;2022-10-28T04:20:36;8.50;;;5.90;;
8086;SDS011;4086;54.412;9.980;2022-10-28T04:23:03;11.50;;;6.50;;
8086;SDS011;4086;54.412;9.980;2022-10-28T04:25:30;9.47;;;6.77;;
8086;SDS011;4086;54.412;9.980;2022-10-28T04:27:56;9.23;;;6.73;;
8086;SDS011;4086;54.412;9.980;2022-10-28T04:30:23;10.23;;;6.50;;
8086;SDS011;4086;54.412;9.980;2022-10-28T04:32:49;8.30;;;6.13;;
8086;SDS011;4086;54.412;9.980;2022-10-28T04:35:17;6.60;;;5.80;;
8086;SDS011;4086;54.412;9.980;2022-10-28T04:37:44;7.03;;;6.33;;
8086;SDS011;4086;54.412;9.980;2022-10-28T04:40:10;7.43;;;6.07;;
8086;SDS011;4086;54.412;9.980;2022-10-28T04:42:37;7.40;;;5.60;;
8086;SDS011;4086;54.412;9.980;2022-10-28T04:45:04;6.90;;;5.70;;
8086;SDS011;4086;54.412;9.980;2022-10-28T04:47:32;8.93;;;6.30;;
8086;SDS011;4086;54.412;9.980;2022-10-28T04:49:58;8.67;;;6.17;;
8086;SDS011;4086;54.412;9.980;2022-10-28T04:52:26;6.93;;;5.73;;
8086;SDS011;4086;54.412;9.980;2022-10-28T04:54:53;7.07;;;6.37;;
8086;SDS011;4086;54.412;9.980;2022-10-28T04:57:19;8.70;;;5.70;;
8086;SDS011;4086;54.412;9.980;2022-10-28T04:59:46;7.37;;;5.73;;
8086;SDS011;4086;54.412;9.980;2022-10-28T05:02:12;7.70;;;6.63;;
8086;SDS011;4086;54.412;9.980;2022-10-28T05:04:39;6.77;;;5.93;;
8086;SDS011;4086;54.412;9.980;2022-10-28T05:07:05;8.50;;;6.07;;
8086;SDS011;4086;54.412;9.980;2022-10-28T05:09:33;6.70;;;5.67;;
8086;SDS011;4086;54.412;9.980;2022-10-28T05:12:00;11.83;;;7.07;;
8086;SDS011;4086;54.412;9.980;2022-10-28T05:14:26;7.50;;;6.60;;
8086;SDS011;4086;54.412;9.980;2022-10-28T05:16:53;8.97;;;6.87;;
8086;SDS011;4086;54.412;9.980;2022-10-28T05:19:19;7.93;;;6.10;;
8086;SDS011;4086;54.412;9.980;2022-10-28T05:21:46;6.97;;;6.17;;
8086;SDS011;4086;54.412;9.980;2022-10-28T05:24:12;8.03;;;6.37;;
8086;SDS011;4086;54.412;9.980;2022-10-28T05:26:40;7.73;;;6.67;;
8086;SDS011;4086;54.412;9.980;2022-10-28T05:29:07;9.37;;;6.67;;
8086;SDS011;4086;54.412;9.980;2022-10-28T05:31:33;7.93;;;6.43;;
8086;SDS011;4086;54.412;9.980;2022-10-28T05:33:59;8.03;;;6.67;;
8086;SDS011;4086;54.412;9.980;2022-10-28T05:36:26;11.63;;;7.17;;
8086;SDS011;4086;54.412;9.980;2022-10-28T05:38:52;10.87;;;7.07;;
8086;SDS011;4086;54.412;9.980;2022-10-28T05:41:19;7.67;;;6.30;;
8086;SDS011;4086;54.412;9.980;2022-10-28T05:43:47;7.30;;;6.07;;
8086;SDS011;4086;54.412;9.980;2022-10-28T05:46:13;9.10;;;6.40;;
8086;SDS011;4086;54.412;9.980;2022-10-28T05:48:40;7.03;;;6.33;;
8086;SDS011;4086;54.412;9.980;2022-10-28T05:51:06;7.27;;;6.50;;
8086;SDS011;4086;54.412;9.980;2022-10-28T05:53:33;8.63;;;6.03;;
8086;SDS011;4086;54.412;9.980;2022-10-28T05:55:59;7.70;;;6.50;;
8086;SDS011;4086;54.412;9.980;2022-10-28T05:58:25;8.53;;;6.40;;
8086;SDS011;4086;54.412;9.980;2022-10-28T06:00:53;10.33;;;6.67;;
8086;SDS011;4086;54.412;9.980;2022-10-28T06:03:20;8.80;;;7.13;;
8086;SDS011;4086;54.412;9.980;2022-10-28T06:05:47;9.43;;;6.37;;
8086;SDS011;4086;54.412;9.980;2022-10-28T06:08:13;7.07;;;6.13;;
8086;SDS011;4086;54.412;9.980;2022-10-28T06:10:40;8.00;;;6.53;;
8086;SDS011;4086;54.412;9.980;2022-10-28T06:13:07;7.67;;;6.00;;
8086;SDS011;4086;54.412;9.980;2022-10-28T06:15:34;7.53;;;6.03;;
8086;SDS011;4086;54.412;9.980;2022-10-28T06:18:01;10.03;;;7.20;;
8086;SDS011;4086;54.412;9.980;2022-10-28T06:20:28;9.03;;;6.60;;
8086;SDS011;4086;54.412;9.980;2022-10-28T06:22:55;9.63;;;6.63;;
8086;SDS011;4086;54.412;9.980;2022-10-28T06:25:22;9.07;;;6.30;;
8086;SDS011;4086;54.412;9.980;2022-10-28T06:27:52;6.63;;;5.83;;
8086;SDS011;4086;54.412;9.980;2022-10-28T06:30:19;6.57;;;5.80;;
8086;SDS011;4086;54.412;9.980;2022-10-28T06:32:46;7.03;;;5.90;;
8086;SDS011;4086;54.412;9.980;2022-10-28T06:35:14;9.20;;;7.30;;
8086;SDS011;4086;54.412;9.980;2022-10-28T06:37:41;7.27;;;6.13;;
8086;SDS011;4086;54.412;9.980;2022-10-28T06:40:07;8.53;;;6.03;;
8086;SDS011;4086;54.412;9.980;2022-10-28T06:42:34;8.17;;;6.27;;
8086;SDS011;4086;54.412;9.980;2022-10-28T06:45:01;6.33;;;5.73;;
8086;SDS011;4086;54.412;9.980;2022-10-28T06:47:27;8.47;;;6.00;;
8086;SDS011;4086;54.412;9.980;2022-10-28T06:49:54;6.70;;;6.00;;
8086;SDS011;4086;54.412;9.980;2022-10-28T06:52:22;9.60;;;6.57;;
8086;SDS011;4086;54.412;9.980;2022-10-28T06:54:48;8.10;;;6.27;;
8086;SDS011;4086;54.412;9.980;2022-10-28T06:57:15;6.77;;;5.90;;
8086;SDS011;4086;54.412;9.980;2022-10-28T06:59:42;6.93;;;6.23;;
8086;SDS011;4086;54.412;9.980;2022-10-28T07:02:08;6.87;;;6.00;;
8086;SDS011;4086;54.412;9.980;2022-10-28T07:04:35;8.83;;;6.53;;
8086;SDS011;4086;54.412;9.980;2022-10-28T07:07:02;8.57;;;6.70;;
8086;SDS011;4086;54.412;9.980;2022-10-28T07:09:29;8.37;;;5.97;;
8086;SDS011;4086;54.412;9.980;2022-10-28T07:11:57;7.17;;;6.17;;
8086;SDS011;4086;54.412;9.980;2022-10-28T07:14:24;8.97;;;6.83;;
8086;SDS011;4086;54.412;9.980;2022-10-28T07:16:50;8.00;;;6.50;;
8086;SDS011;4086;54.412;9.980;2022-10-28T07:19:17;7.33;;;5.70;;
8086;SDS011;4086;54.412;9.980;2022-10-28T07:21:43;7.90;;;6.10;;
8086;SDS011;4086;54.412;9.980;2022-10-28T07:24:12;7.47;;;6.10;;
8086;SDS011;4086;54.412;9.980;2022-10-28T07:26:40;8.20;;;6.23;;
8086;SDS011;4086;54.412;9.980;2022-10-28T07:29:06;7.63;;;5.87;;
8086;SDS011;4086;54.412;9.980;2022-10-28T07:31:33;7.27;;;6.40;;
8086;SDS011;4086;54.412;9.980;2022-10-28T07:33:59;7.70;;;5.90;;
8086;SDS011;4086;54.412;9.980;2022-10-28T07:36:25;8.33;;;5.57;;
8086;SDS011;4086;54.412;9.980;2022-10-28T07:38:52;6.90;;;5.63;;
8086;SDS011;4086;54.412;9.980;2022-10-28T07:41:19;6.30;;;5.53;;
8086;SDS011;4086;54.412;9.980;2022-10-28T07:43:47;5.97;;;5.37;;
8086;SDS011;4086;54.412;9.980;2022-10-28T07:46:14;8.87;;;5.60;;
8086;SDS011;4086;54.412;9.980;2022-10-28T07:48:41;7.63;;;5.10;;
8086;SDS011;4086;54.412;9.980;2022-10-28T07:51:09;7.97;;;5.90;;
8086;SDS011;4086;54.412;9.980;2022-10-28T07:53:37;6.30;;;5.70;;
8086;SDS011;4086;54.412;9.980;2022-10-28T07:56:04;7.97;;;5.10;;
8086;SDS011;4086;54.412;9.980;2022-10-28T07:58:33;5.40;;;4.87;;
8086;SDS011;4086;54.412;9.980;2022-10-28T08:01:02;8.77;;;5.90;;
8086;SDS011;4086;54.412;9.980;2022-10-28T08:03:29;8.17;;;5.40;;
8086;SDS011;4086;54.412;9.980;2022-10-28T08:05:59;5.93;;;5.33;;
8086;SDS011;4086;54.412;9.980;2022-10-28T08:08:26;6.53;;;4.93;;
8086;SDS011;4086;54.412;9.980;2022-10-28T08:10:53;8.43;;;4.87;;
8086;SDS011;4086;54.412;9.980;2022-10-28T08:13:20;8.73;;;5.23;;
8086;SDS011;4086;54.412;9.980;2022-10-28T08:15:50;5.30;;;4.37;;
8086;SDS011;4086;54.412;9.980;2022-10-28T08:18:18;7.63;;;5.07;;
8086;SDS011;4086;54.412;9.980;2022-10-28T08:20:45;8.20;;;5.27;;
8086;SDS011;4086;54.412;9.980;2022-10-28T08:23:11;7.93;;;5.40;;
8086;SDS011;4086;54.412;9.980;2022-10-28T08:25:45;7.73;;;5.17;;
8086;SDS011;4086;54.412;9.980;2022-10-28T08:28:13;7.63;;;4.90;;
8086;SDS011;4086;54.412;9.980;2022-10-28T08:30:39;9.07;;;4.80;;
8086;SDS011;4086;54.412;9.980;2022-10-28T08:33:06;5.70;;;4.70;;
8086;SDS011;4086;54.412;9.980;2022-10-28T08:35:34;8.20;;;4.77;;
8086;SDS011;4086;54.412;9.980;2022-10-28T08:38:00;7.40;;;5.10;;
8086;SDS011;4086;54.412;9.980;2022-10-28T08:40:28;5.40;;;4.50;;
8086;SDS011;4086;54.412;9.980;2022-10-28T08:42:59;9.57;;;5.27;;
8086;SDS011;4086;54.412;9.980;2022-10-28T08:45:34;6.97;;;4.37;;
8086;SDS011;4086;54.412;9.980;2022-10-28T08:48:08;8.77;;;4.27;;
8086;SDS011;4086;54.412;9.980;2022-10-28T08:50:41;4.70;;;4.20;;
8086;SDS011;4086;54.412;9.980;2022-10-28T08:53:12;7.50;;;4.27;;
8086;SDS011;4086;54.412;9.980;2022-10-28T08:55:42;5.53;;;3.83;;
8086;SDS011;4086;54.412;9.980;2022-10-28T08:58:11;6.50;;;4.40;;
8086;SDS011;4086;54.412;9.980;2022-10-28T09:00:43;4.70;;;4.03;;
8086;SDS011;4086;54.412;9.980;2022-10-28T09:03:15;4.67;;;3.80;;
8086;SDS011;4086;54.412;9.980;2022-10-28T09:05:46;6.20;;;3.80;;
8086;SDS011;4086;54.412;9.980;2022-10-28T09:08:17;6.87;;;4.10;;
8086;SDS011;4086;54.412;9.980;2022-10-28T09:10:51;6.87;;;3.40;;
8086;SDS011;4086;54.412;9.980;2022-10-28T09:13:40;6.33;;;3.80;;
8086;SDS011;4086;54.412;9.980;2022-10-28T09:16:14;7.00;;;3.83;;
8086;SDS011;4086;54.412;9.980;2022-10-28T09:18:49;5.63;;;3.70;;
8086;SDS011;4086;54.412;9.980;2022-10-28T09:21:19;5.40;;;3.57;;
8086;SDS011;4086;54.412;9.980;2022-10-28T09:23:53;9.70;;;3.90;;
8086;SDS011;4086;54.412;9.980;2022-10-28T09:26:23;6.07;;;3.70;;
8086;SDS011;4086;54.412;9.980;2022-10-28T09:28:56;6.50;;;3.47;;
8086;SDS011;4086;54.412;9.980;2022-10-28T09:31:29;4.73;;;3.57;;
8086;SDS011;4086;54.412;9.980;2022-10-28T09:34:08;4.10;;;3.10;;
8086;SDS011;4086;54.412;9.980;2022-10-28T09:36:44;4.10;;;3.43;;
8086;SDS011;4086;54.412;9.980;2022-10-28T09:39:14;5.10;;;3.27;;
8086;SDS011;4086;54.412;9.980;2022-10-28T09:41:43;7.23;;;3.50;;
8086;SDS011;4086;54.412;9.980;2022-10-28T09:44:14;5.90;;;3.13;;
8086;SDS011;4086;54.412;9.980;2022-10-28T09:46:43;4.93;;;3.60;;
8086;SDS011;4086;54.412;9.980;2022-10-28T09:49:13;4.90;;;3.30;;
8086;SDS011;4086;54.412;9.980;2022-10-28T09:51:45;3.90;;;3.30;;
8086;SDS011;4086;54.412;9.980;2022-10-28T09:54:14;4.77;;;3.10;;
8086;SDS011;4086;54.412;9.980;2022-10-28T09:56:42;5.87;;;3.20;;
8086;SDS011;4086;54.412;9.980;2022-10-28T09:59:10;5.73;;;3.17;;
8086;SDS011;4086;54.412;9.980;2022-10-28T10:01:39;4.00;;;3.33;;
8086;SDS011;4086;54.412;9.980;2022-10-28T10:04:11;3.67;;;3.00;;
8086;SDS011;4086;54.412;9.980;2022-10-28T10:06:42;5.13;;;3.43;;
8086;SDS011;4086;54.412;9.980;2022-10-28T10:09:13;6.20;;;3.17;;
8086;SDS011;4086;54.412;9.980;2022-10-28T10:11:43;4.20;;;3.23;;
8086;SDS011;4086;54.412;9.980;2022-10-28T10:14:11;7.80;;;3.63;;
8086;SDS011;4086;54.412;9.980;2022-10-28T10:16:40;4.57;;;3.50;;
8086;SDS011;4086;54.412;9.980;2022-10-28T10:19:10;6.93;;;3.50;;
8086;SDS011;4086;54.412;9.980;2022-10-28T10:21:40;5.70;;;3.20;;
8086;SDS011;4086;54.412;9.980;2022-10-28T10:24:23;6.73;;;3.60;;
8086;SDS011;4086;54.412;9.980;2022-10-28T10:26:56;5.33;;;3.30;;
8086;SDS011;4086;54.412;9.980;2022-10-28T10:29:25;4.57;;;3.13;;
8086;SDS011;4086;54.412;9.980;2022-10-28T10:32:03;4.60;;;3.30;;
8086;SDS011;4086;54.412;9.980;2022-10-28T10:34:31;3.23;;;2.93;;
8086;SDS011;4086;54.412;9.980;2022-10-28T10:36:58;6.17;;;3.40;;
8086;SDS011;4086;54.412;9.980;2022-10-28T10:39:26;3.30;;;3.00;;
8086;SDS011;4086;54.412;9.980;2022-10-28T10:41:56;5.93;;;3.47;;
8086;SDS011;4086;54.412;9.980;2022-10-28T10:44:24;4.20;;;3.40;;
8086;SDS011;4086;54.412;9.980;2022-10-28T10:49:47;7.03;;;3.40;;
8086;SDS011;4086;54.412;9.980;2022-10-28T10:52:16;6.90;;;3.43;;
8086;SDS011;4086;54.412;9.980;2022-10-28T10:54:47;5.03;;;3.07;;
8086;SDS011;4086;54.412;9.980;2022-10-28T10:57:22;5.77;;;3.33;;
8086;SDS011;4086;54.412;9.980;2022-10-28T10:59:51;4.97;;;3.13;;
8086;SDS011;4086;54.412;9.980;2022-10-28T11:02:19;6.73;;;3.40;;
8086;SDS011;4086;54.412;9.980;2022-10-28T11:04:48;7.13;;;3.37;;
8086;SDS011;4086;54.412;9.980;2022-10-28T11:07:16;6.47;;;3.57;;
8086;SDS011;4086;54.412;9.980;2022-10-28T11:09:45;9.27;;;3.47;;
8086;SDS011;4086;54.412;9.980;2022-10-28T11:12:14;3.73;;;2.73;;
8086;SDS011;4086;54.412;9.980;2022-10-28T11:14:52;6.80;;;3.30;;
8086;SDS011;4086;54.412;9.980;2022-10-28T11:17:22;7.33;;;3.60;;
8086;SDS011;4086;54.412;9.980;2022-10-28T11:19:50;4.30;;;3.13;;
8086;SDS011;4086;54.412;9.980;2022-10-28T11:22:22;4.67;;;3.30;;
8086;SDS011;4086;54.412;9.980;2022-10-28T11:28:01;5.87;;;2.97;;
8086;SDS011;4086;54.412;9.980;2022-10-28T11:30:39;4.20;;;3.33;;
8086;SDS011;4086;54.412;9.980;2022-10-28T11:33:12;4.63;;;3.10;;
8086;SDS011;4086;54.412;9.980;2022-10-28T11:35:42;8.53;;;3.70;;
8086;SDS011;4086;54.412;9.980;2022-10-28T11:38:16;5.53;;;3.13;;
8086;SDS011;4086;54.412;9.980;2022-10-28T11:40:54;10.23;;;3.67;;
8086;SDS011;4086;54.412;9.980;2022-10-28T11:43:30;5.30;;;3.23;;
8086;SDS011;4086;54.412;9.980;2022-10-28T11:46:02;6.87;;;3.43;;
8086;SDS011;4086;54.412;9.980;2022-10-28T11:48:41;4.93;;;3.20;;
8086;SDS011;4086;54.412;9.980;2022-10-28T11:51:18;6.27;;;3.20;;
8086;SDS011;4086;54.412;9.980;2022-10-28T11:53:57;6.30;;;3.43;;
8086;SDS011;4086;54.412;9.980;2022-10-28T11:56:31;7.17;;;3.70;;
8086;SDS011;4086;54.412;9.980;2022-10-28T11:59:14;5.77;;;3.60;;
8086;SDS011;4086;54.412;9.980;2022-10-28T12:01:53;5.77;;;3.43;;
8086;SDS011;4086;54.412;9.980;2022-10-28T12:04:31;8.17;;;3.53;;
8086;SDS011;4086;54.412;9.980;2022-10-28T12:07:15;5.63;;;3.40;;
8086;SDS011;4086;54.412;9.980;2022-10-28T12:09:56;5.60;;;2.90;;
8086;SDS011;4086;54.412;9.980;2022-10-28T12:12:35;5.23;;;3.30;;
8086;SDS011;4086;54.412;9.980;2022-10-28T12:15:12;7.83;;;3.77;;
8086;SDS011;4086;54.412;9.980;2022-10-28T12:17:43;6.07;;;3.53;;
8086;SDS011;4086;54.412;9.980;2022-10-28T12:20:13;8.37;;;3.93;;
8086;SDS011;4086;54.412;9.980;2022-10-28T12:22:44;6.63;;;3.13;;
8086;SDS011;4086;54.412;9.980;2022-10-28T12:25:13;6.50;;;3.03;;
8086;SDS011;4086;54.412;9.980;2022-10-28T12:27:42;7.63;;;3.50;;
8086;SDS011;4086;54.412;9.980;2022-10-28T12:30:15;8.07;;;3.50;;
8086;SDS011;4086;54.412;9.980;2022-10-28T12:32:45;7.07;;;3.70;;
8086;SDS011;4086;54.412;9.980;2022-10-28T12:35:15;10.70;;;3.63;;
8086;SDS011;4086;54.412;9.980;2022-10-28T12:37:44;4.37;;;3.33;;
8086;SDS011;4086;54.412;9.980;2022-10-28T12:40:13;5.47;;;3.23;;
8086;SDS011;4086;54.412;9.980;2022-10-28T12:42:42;6.57;;;3.47;;
8086;SDS011;4086;54.412;9.980;2022-10-28T12:45:12;9.63;;;3.70;;
8086;SDS011;4086;54.412;9.980;2022-10-28T12:47:43;6.17;;;3.53;;
8086;SDS011;4086;54.412;9.980;2022-10-28T12:50:13;6.70;;;3.80;;
8086;SDS011;4086;54.412;9.980;2022-10-28T12:52:46;5.57;;;3.27;;
8086;SDS011;4086;54.412;9.980;2022-10-28T12:55:27;8.57;;;3.53;;
8086;SDS011;4086;54.412;9.980;2022-10-28T12:57:58;4.73;;;3.27;;
8086;SDS011;4086;54.412;9.980;2022-10-28T13:00:28;6.57;;;3.70;;
8086;SDS011;4086;54.412;9.980;2022-10-28T13:03:00;7.20;;;3.43;;
8086;SDS011;4086;54.412;9.980;2022-10-28T13:05:30;7.63;;;4.03;;
8086;SDS011;4086;54.412;9.980;2022-10-28T13:14:09;7.27;;;3.30;;
8086;SDS011;4086;54.412;9.980;2022-10-28T13:16:48;7.33;;;3.57;;
8086;SDS011;4086;54.412;9.980;2022-10-28T13:19:28;7.10;;;3.63;;
8086;SDS011;4086;54.412;9.980;2022-10-28T13:22:13;6.70;;;3.63;;
8086;SDS011;4086;54.412;9.980;2022-10-28T13:24:49;10.87;;;4.27;;
8086;SDS011;4086;54.412;9.980;2022-10-28T13:27:18;7.17;;;3.53;;
8086;SDS011;4086;54.412;9.980;2022-10-28T13:29:47;9.17;;;3.93;;
8086;SDS011;4086;54.412;9.980;2022-10-28T13:32:32;5.30;;;3.73;;
8086;SDS011;4086;54.412;9.980;2022-10-28T13:35:08;5.23;;;3.30;;
8086;SDS011;4086;54.412;9.980;2022-10-28T13:37:36;7.43;;;3.77;;
8086;SDS011;4086;54.412;9.980;2022-10-28T13:40:05;5.97;;;3.97;;
8086;SDS011;4086;54.412;9.980;2022-10-28T13:42:45;8.63;;;3.93;;
8086;SDS011;4086;54.412;9.980;2022-10-28T13:51:36;6.40;;;3.40;;
8086;SDS011;4086;54.412;9.980;2022-10-28T13:54:22;9.30;;;3.70;;
8086;SDS011;4086;54.412;9.980;2022-10-28T13:56:50;7.63;;;3.40;;
8086;SDS011;4086;54.412;9.980;2022-10-28T13:59:18;5.90;;;4.03;;
8086;SDS011;4086;54.412;9.980;2022-10-28T14:01:50;4.90;;;3.60;;
8086;SDS011;4086;54.412;9.980;2022-10-28T14:04:26;6.20;;;3.63;;
8086;SDS011;4086;54.412;9.980;2022-10-28T14:09:51;8.10;;;3.53;;
8086;SDS011;4086;54.412;9.980;2022-10-28T14:12:23;7.67;;;3.53;;
8086;SDS011;4086;54.412;9.980;2022-10-28T14:15:02;6.47;;;3.60;;
8086;SDS011;4086;54.412;9.980;2022-10-28T14:17:35;7.03;;;3.63;;
8086;SDS011;4086;54.412;9.980;2022-10-28T14:20:03;7.43;;;4.10;;
8086;SDS011;4086;54.412;9.980;2022-10-28T14:22:34;6.73;;;3.40;;
8086;SDS011;4086;54.412;9.980;2022-10-28T14:25:01;10.20;;;4.17;;
8086;SDS011;4086;54.412;9.980;2022-10-28T14:27:29;7.63;;;3.93;;
8086;SDS011;4086;54.412;9.980;2022-10-28T14:30:12;8.40;;;3.93;;
8086;SDS011;4086;54.412;9.980;2022-10-28T14:35:46;6.53;;;4.30;;
8086;SDS011;4086;54.412;9.980;2022-10-28T14:38:23;8.53;;;3.60;;
8086;SDS011;4086;54.412;9.980;2022-10-28T14:41:16;9.07;;;4.00;;
8086;SDS011;4086;54.412;9.980;2022-10-28T14:43:53;10.27;;;4.87;;
8086;SDS011;4086;54.412;9.980;2022-10-28T14:46:28;8.27;;;4.17;;
8086;SDS011;4086;54.412;9.980;2022-10-28T14:49:00;5.70;;;3.80;;
8086;SDS011;4086;54.412;9.980;2022-10-28T14:51:28;5.83;;;3.50;;
8086;SDS011;4086;54.412;9.980;2022-10-28T14:54:05;5.60;;;4.03;;
8086;SDS011;4086;54.412;9.980;2022-10-28T14:56:34;7.97;;;4.27;;
8086;SDS011;4086;54.412;9.980;2022-10-28T14:59:03;9.50;;;3.97;;
8086;SDS011;4086;54.412;9.980;2022-10-28T15:01:49;7.73;;;3.77;;
8086;SDS011;4086;54.412;9.980;2022-10-28T15:04:20;7.33;;;3.90;;
8086;SDS011;4086;54.412;9.980;2022-10-28T15:06:48;8.13;;;4.50;;
8086;SDS011;4086;54.412;9.980;2022-10-28T15:09:20;6.53;;;3.83;;
8086;SDS011;4086;54.412;9.980;2022-10-28T15:11:48;7.30;;;3.47;;
8086;SDS011;4086;54.412;9.980;2022-10-28T15:14:32;7.80;;;3.90;;
8086;SDS011;4086;54.412;9.980;2022-10-28T15:17:11;9.20;;;4.17;;
8086;SDS011;4086;54.412;9.980;2022-10-28T15:19:39;9.53;;;4.97;;
8086;SDS011;4086;54.412;9.980;2022-10-28T15:22:10;5.37;;;4.00;;
8086;SDS011;4086;54.412;9.980;2022-10-28T15:24:40;7.70;;;3.70;;
8086;SDS011;4086;54.412;9.980;2022-10-28T15:27:08;6.03;;;3.63;;
8086;SDS011;4086;54.412;9.980;2022-10-28T15:29:36;4.83;;;3.77;;
8086;SDS011;4086;54.412;9.980;2022-10-28T15:32:08;8.23;;;4.20;;
8086;SDS011;4086;54.412;9.980;2022-10-28T15:34:37;6.87;;;4.17;;
8086;SDS011;4086;54.412;9.980;2022-10-28T15:37:04;8.23;;;4.53;;
8086;SDS011;4086;54.412;9.980;2022-10-28T15:39:31;6.30;;;4.37;;
8086;SDS011;4086;54.412;9.980;2022-10-28T15:41:58;9.73;;;4.73;;
8086;SDS011;4086;54.412;9.980;2022-10-28T15:44:30;6.33;;;4.50;;
8086;SDS011;4086;54.412;9.980;2022-10-28T15:46:59;7.53;;;5.20;;
8086;SDS011;4086;54.412;9.980;2022-10-28T15:49:34;11.47;;;5.23;;
8086;SDS011;4086;54.412;9.980;2022-10-28T15:55:22;8.17;;;5.13;;
8086;SDS011;4086;54.412;9.980;2022-10-28T15:57:55;9.40;;;5.60;;
8086;SDS011;4086;54.412;9.980;2022-10-28T16:00:23;8.70;;;4.93;;
8086;SDS011;4086;54.412;9.980;2022-10-28T16:02:52;7.10;;;4.77;;